KSJS

Big Sandy Regional Airport

Prestonsburg, Kentucky, USA
METAR KSJS 190655Z AUTO 21005KT 10SM CLR M03/M12 A3023 RMK AO2 T10271116
Observed Flight Rules
Jan-19 @ 06:55 UTC (34 minutes ago) Visual Flight Rules
Wind Visibility Clouds
210° at 5 knots 10 miles
  • Clear skies
Temperatures Readings
Current -3°C / 27°F
Dewpoint -12°C / 10°F
Humidity 50%
Altimeter 30.23" Hg
Pressure 1024 hPa
Elevation 372
METAR KSJS 190655Z AUTO 21005KT 10SM CLR M03/M12 A3023 RMK AO2 T10271116
Observed Flight Rules
Jan-19 @ 06:55 UTC
(34 minutes ago)
VFR
Wind Visibility
210° at 5 knots 10 miles
Clouds
  • Clear skies
Temperature Dewpoint
-3°C / 27°F -12°C / 10°F
Humidity Altimeter Pressure
50% 30.23" Hg 1024 hPa